الكل
Muchea/Greenside Airport (Muchea, WA) YGSD حالة الطقس
There is no TAF data available at YGSD. Showing TAF data for YGIG (6 mi غرب).
توقع منطقة محطة المطار YGIG (لا توجد بيانات لـYGSD)
| Here is the undecoded forecast: 2026/05/06 02:29 YGIG 060229Z 0602/0609 06012KT CAVOK FM060600 12008KT 9999 FU FEW040 PROB30 0606/0609 5000 FU VV035 RMK T 18 22 22 Q 1029 1027 1027 |
There is no METAR data available at YGSD. Showing METAR data for YGIG (6 mi غرب).
محفوظات أحدث تقرير روتيني عن حالة الطقس من أجل الطيران (الميتار) YGIG ( لا توجد بيانات لـYGSD)
| Date | Time (AWST) | Flight Rules | Wind Dir. | Speed | Type | Height AGL (ft) | Visibility | Temp (°C) | Temp (°F) | Dew Point (°C) | Dew Point (°F) | Rel. Humid. | Pressure | Density Altitude | Remarks |
|---|---|---|---|---|---|---|---|---|---|---|---|---|---|---|---|
| 06-ماي | 11:00 | n/a | 90° | 13 kt | Missing | 20° | 68° | 9° | 48° | 49% | 1029 mb | 403 ft | |||
| 06-ماي | 10:00 | n/a | 40° | 12 kt | Missing | 18° | 64° | 9° | 48° | 56% | 1029 mb | 163 ft | |||
| 06-ماي | 09:00 | n/a | 50° | 11 kt | Missing | 16° | 60° | 9° | 48° | 63% | 1029 mb | -77 ft | |||
| 06-ماي | 08:00 | n/a | 100° | 9 kt | Missing | 14° | 57° | 9° | 48° | 72% | 1028 mb | -288 ft | |||
| 06-ماي | 07:00 | n/a | 100° | 10 kt | Missing | 12° | 53° | 9° | 48° | 82% | 1028 mb | -528 ft | |||
| 06-ماي | 06:00 | n/a | 110° | 10 kt | Missing | 12° | 53° | 9° | 48° | 82% | 1027 mb | -498 ft | |||
| 06-ماي | 05:00 | n/a | 110° | 8 kt | Missing | 12° | 53° | 9° | 48° | 82% | 1027 mb | -498 ft | |||
| 06-ماي | 04:00 | n/a | 110° | 9 kt | Missing | 11° | 51° | 8° | 46° | 82% | 1026 mb | -589 ft | |||
| 06-ماي | 03:00 | n/a | 100° | 4 kt | Missing | 10° | 50° | 7° | 44° | 82% | 1026 mb | -709 ft | |||
| 06-ماي | 02:00 | n/a | 130° | 7 kt | Missing | 12° | 53° | 8° | 46° | 76% | 1026 mb | -469 ft | |||
| 06-ماي | 01:00 | n/a | 120° | 6 kt | Missing | 9° | 48° | 8° | 46° | 93% | 1026 mb | -829 ft | |||
| 06-ماي | 00:00 | n/a | 130° | 6 kt | Missing | 11° | 51° | 9° | 48° | 87% | 1026 mb | -589 ft | |||
| 05-ماي | 23:00 | n/a | 130° | 5 kt | Missing | 10° | 50° | 8° | 46° | 87% | 1026 mb | -709 ft | |||
| 05-ماي | 22:00 | n/a | 130° | 3 kt | Missing | 10° | 50° | 8° | 46° | 87% | 1026 mb | -709 ft | |||
| 05-ماي | 21:00 | n/a | 150° | 4 kt | Missing | 13° | 55° | 9° | 48° | 77% | 1026 mb | -349 ft | |||
| 05-ماي | 20:00 | n/a | 170° | 5 kt | Missing | 15° | 59° | 10° | 50° | 72% | 1026 mb | -109 ft | |||
| 05-ماي | 19:00 | n/a | 180° | 6 kt | Missing | 16° | 60° | 10° | 50° | 68% | 1025 mb | 41 ft | |||
| 05-ماي | 18:00 | n/a | 200° | 9 kt | Missing | 18° | 64° | 11° | 51° | 64% | 1025 mb | 281 ft | |||
| 05-ماي | 17:00 | n/a | 140° | 5 kt | Missing | 21° | 69° | 9° | 48° | 46% | 1024 mb | 670 ft | |||
| 05-ماي | 16:00 | n/a | 130° | 11 kt | Missing | 23° | 73° | 8° | 46° | 38% | 1024 mb | 910 ft | |||
| 05-ماي | 15:00 | n/a | 140° | 6 kt | Missing | 24° | 75° | 8° | 46° | 36% | 1024 mb | 1,030 ft | |||
| 05-ماي | 14:00 | n/a | 160° | 6 kt | Missing | 23° | 73° | 8° | 46° | 38% | 1024 mb | 910 ft | |||
| 05-ماي | 13:00 | n/a | 110° | 5 kt | Missing | 23° | 73° | 8° | 46° | 38% | 1025 mb | 881 ft | |||
| 05-ماي | 12:00 | n/a | 50° | 7 kt | Missing | 22° | 71° | 10° | 50° | 46% | 1025 mb | 761 ft |
تسجيل الدخول
| مُتصفحك غير مُدعَّم. قم بترقية متصفحك |
